Time;durP1;ratioP1;P1;durP2;ratioP2;P2;SDS_P1;SDS_P2;PMS_P1;PMS_P2;Temp;Humidity;BMP_temperature;BMP_pressure;BME280_temperature;BME280_humidity;BME280_pressure;Samples;Min_cycle;Max_cycle;Signal;HPM_P1;HPM_P2
2021/10/23 00:02:24;;;;;;;2.75;1.20;;;;;;;8.66;77.98;100638.06;5015719;28;20053;-69
2021/10/23 00:04:52;;;;;;;6.00;1.80;;;;;;;8.59;78.50;100637.53;5015669;28;20103;-70
2021/10/23 00:07:22;;;;;;;8.02;1.70;;;;;;;8.57;78.64;100644.69;5015536;28;20045;-71
2021/10/23 00:09:50;;;;;;;6.95;1.65;;;;;;;8.48;79.41;100658.38;5016028;28;20133;-70
2021/10/23 00:12:18;;;;;;;5.88;1.58;;;;;;;8.50;79.29;100656.56;5015531;28;20045;-70
2021/10/23 00:14:47;;;;;;;7.53;1.80;;;;;;;8.45;79.24;100648.75;5015753;28;20394;-70
2021/10/23 00:17:15;;;;;;;6.25;1.77;;;;;;;8.48;79.38;100658.38;5015145;28;20038;-70
2021/10/23 00:19:43;;;;;;;7.07;1.98;;;;;;;8.45;79.69;100653.22;5015674;28;20479;-70
2021/10/23 00:22:11;;;;;;;4.60;2.03;;;;;;;8.43;79.51;100653.28;5015606;28;20046;-70
2021/10/23 00:24:41;;;;;;;5.65;1.80;;;;;;;8.50;79.25;100662.72;5015643;28;20454;-69
2021/10/23 00:27:09;;;;;;;5.43;1.90;;;;;;;8.48;78.97;100653.06;5015472;28;20105;-70
2021/10/23 00:29:38;;;;;;;6.13;1.73;;;;;;;8.44;79.23;100655.00;5015188;28;20073;-69
2021/10/23 00:32:06;;;;;;;7.80;1.88;;;;;;;8.41;79.41;100649.84;4998294;28;20058;-70
2021/10/23 00:34:34;;;;;;;7.30;1.73;;;;;;;8.41;79.27;100651.66;5015054;28;20053;-69
2021/10/23 00:37:04;;;;;;;5.03;1.60;;;;;;;8.39;79.58;100654.34;5015329;28;20493;-70
2021/10/23 00:39:32;;;;;;;4.88;1.50;;;;;;;8.47;79.15;100657.53;5015053;28;20073;-71
2021/10/23 00:42:01;;;;;;;6.43;1.73;;;;;;;8.44;79.12;100662.13;5015235;28;20042;-70
2021/10/23 00:44:31;;;;;;;4.50;1.77;;;;;;;8.46;79.27;100658.47;5014606;28;20085;-70
2021/10/23 00:47:04;;;;;;;6.63;1.98;;;;;;;8.41;79.57;100660.47;5015197;28;20078;-70
2021/10/23 00:49:33;;;;;;;10.60;2.17;;;;;;;8.44;79.21;100662.13;5014514;28;20046;-70
2021/10/23 00:52:03;;;;;;;5.60;1.90;;;;;;;8.41;79.49;100663.13;5014988;28;20050;-70
2021/10/23 00:54:32;;;;;;;7.40;1.90;;;;;;;8.47;79.52;100656.66;5014783;28;20089;-70
2021/10/23 00:57:06;;;;;;;5.40;1.85;;;;;;;8.41;79.68;100655.16;5014745;28;20041;-72
2021/10/23 00:59:34;;;;;;;;;;;;;;;8.38;79.94;100663.25;5015131;28;20446;-71
2021/10/23 01:02:04;;;;;;;7.10;1.80;;;;;;;8.34;80.15;100672.28;5014658;28;19921;-70
2021/10/23 01:04:33;;;;;;;7.63;1.92;;;;;;;8.39;79.85;100662.31;5014540;28;20053;-70
2021/10/23 01:07:02;;;;;;;7.30;1.88;;;;;;;8.42;79.79;100678.16;5014200;28;20046;-70
2021/10/23 01:09:31;;;;;;;5.93;2.08;;;;;;;8.44;79.88;100683.41;5014481;28;20438;-70
2021/10/23 01:12:00;;;;;;;4.95;2.00;;;;;;;8.46;79.89;100676.22;5014666;28;20117;-71
2021/10/23 01:14:29;;;;;;;8.32;2.10;;;;;;;8.42;80.15;100680.81;5014343;28;20092;-69
2021/10/23 01:16:58;;;;;;;9.52;2.20;;;;;;;8.41;79.87;100675.56;5014369;28;20033;-70
2021/10/23 01:19:26;;;;;;;6.88;2.17;;;;;;;8.45;79.87;100680.66;5014039;28;20053;-69
2021/10/23 01:21:55;;;;;;;8.68;2.50;;;;;;;8.45;79.93;100680.66;4996950;28;20141;-69
2021/10/23 01:24:24;;;;;;;7.40;2.92;;;;;;;8.44;80.18;100686.06;5014130;28;20099;-70
2021/10/23 01:26:53;;;;;;;9.93;2.80;;;;;;;8.44;80.64;100678.94;5014494;28;20037;-69
2021/10/23 01:29:22;;;;;;;9.50;2.55;;;;;;;8.33;80.74;100671.41;5014095;28;20053;-71
2021/10/23 01:31:53;;;;;;;5.82;2.45;;;;;;;8.43;80.24;100682.53;4997180;28;20049;-70
2021/10/23 01:34:24;;;;;;;8.80;2.28;;;;;;;8.42;80.16;100686.13;5014380;28;20046;-71
2021/10/23 01:36:55;;;;;;;6.68;2.58;;;;;;;8.47;79.56;100684.13;5014050;28;20502;-69
2021/10/23 01:39:25;;;;;;;8.25;2.42;;;;;;;8.47;79.58;100685.91;5013681;28;20049;-69
2021/10/23 01:41:54;;;;;;;6.28;2.30;;;;;;;8.42;79.48;100707.41;5014329;28;20042;-68
2021/10/23 01:44:25;;;;;;;6.85;2.25;;;;;;;8.43;79.57;100687.84;5013720;28;20057;-69
2021/10/23 01:46:53;;;;;;;7.40;2.17;;;;;;;8.48;79.10;100690.28;5013891;28;20064;-69
2021/10/23 01:49:22;;;;;;;6.07;1.50;;;;;;;8.47;79.29;100689.44;5013621;28;20060;-68
2021/10/23 01:51:50;;;;;;;4.22;2.03;;;;;;;8.47;79.15;100694.75;5013652;28;20050;-70
2021/10/23 01:54:19;;;;;;;9.23;2.03;;;;;;;8.42;79.44;100702.09;5013886;28;20451;-68
2021/10/23 01:56:49;;;;;;;4.95;1.98;;;;;;;8.44;79.26;100708.19;5013912;28;20100;-69
2021/10/23 01:59:17;;;;;;;4.60;1.60;;;;;;;8.50;78.99;100712.38;5013942;28;20072;-68
2021/10/23 02:01:45;;;;;;;5.53;1.80;;;;;;;8.49;79.10;100714.19;5013653;28;20486;-69
2021/10/23 02:04:14;;;;;;;6.50;2.15;;;;;;;8.47;79.26;100715.16;4995907;28;20537;-68
2021/10/23 02:06:42;;;;;;;7.88;2.20;;;;;;;8.46;79.40;100721.41;5013498;28;20042;-68
2021/10/23 02:09:11;;;;;;;5.13;1.65;;;;;;;8.43;79.47;100721.56;5013706;28;20042;-69
2021/10/23 02:11:39;;;;;;;5.75;1.67;;;;;;;8.50;78.78;100718.56;5013322;28;20046;-69
2021/10/23 02:14:08;;;;;;;7.28;2.15;;;;;;;8.42;79.13;100715.38;5013681;28;20096;-69
2021/10/23 02:16:38;;;;;;;5.63;1.83;;;;;;;8.37;79.17;100713.84;5013299;28;20050;-70
2021/10/23 02:19:06;;;;;;;6.78;1.90;;;;;;;8.38;79.58;100732.38;4995367;28;20134;-69
2021/10/23 02:21:34;;;;;;;4.65;1.88;;;;;;;8.35;79.59;100727.19;5013226;28;20041;-69
2021/10/23 02:24:02;;;;;;;3.85;1.60;;;;;;;8.33;79.50;100726.38;5013467;28;20048;-69
2021/10/23 02:26:31;;;;;;;3.47;1.58;;;;;;;8.33;79.71;100739.66;5012859;28;20069;-69
2021/10/23 02:28:59;;;;;;;6.88;2.35;;;;;;;8.31;79.72;100736.22;5013322;28;20041;-70
2021/10/23 02:31:32;;;;;;;7.15;1.67;;;;;;;8.29;80.07;100740.69;5012822;28;20407;-69
2021/10/23 02:34:01;;;;;;;6.05;1.88;;;;;;;8.37;79.03;100748.38;5013374;28;20046;-69
2021/10/23 02:36:29;;;;;;;6.13;2.03;;;;;;;8.32;79.37;100745.91;5013058;28;20044;-69
2021/10/23 02:38:57;;;;;;;2.58;1.20;;;;;;;8.30;79.80;100745.13;5013323;28;20073;-70
2021/10/23 02:41:26;;;;;;;6.35;1.70;;;;;;;8.25;79.76;100749.75;5012762;28;20073;-69
2021/10/23 02:43:54;;;;;;;5.03;1.73;;;;;;;8.34;79.33;100752.03;5013209;28;20050;-69
2021/10/23 02:46:23;;;;;;;5.05;1.65;;;;;;;8.27;79.50;100750.53;5012882;28;20057;-69
2021/10/23 02:48:52;;;;;;;7.63;2.35;;;;;;;8.27;79.15;100750.53;5013128;28;20042;-69
2021/10/23 02:51:20;;;;;;;8.77;2.10;;;;;;;8.24;78.67;100740.06;5012922;28;20100;-71
2021/10/23 02:53:48;;;;;;;4.13;1.95;;;;;;;8.31;78.50;100753.03;5012463;28;20606;-71
2021/10/23 02:56:19;;;;;;;4.32;1.60;;;;;;;8.33;77.94;100750.28;5012923;28;20125;-70
2021/10/23 02:58:47;;;;;;;4.72;1.60;;;;;;;8.35;77.92;100763.53;5012850;28;20092;-70
2021/10/23 03:01:15;;;;;;;6.43;1.98;;;;;;;8.24;78.74;100762.19;5013130;28;20041;-70
2021/10/23 03:03:44;;;;;;;5.28;1.50;;;;;;;8.18;79.21;100762.44;5012694;28;20092;-70
2021/10/23 03:06:17;;;;;;;5.30;1.77;;;;;;;8.18;78.62;100756.25;4995380;28;20096;-69
2021/10/23 03:08:46;;;;;;;4.60;1.63;;;;;;;8.16;78.31;100758.09;5012706;28;20913;-70
2021/10/23 03:11:14;;;;;;;3.88;1.70;;;;;;;8.21;78.56;100761.47;5012793;28;20066;-69
2021/10/23 03:13:43;;;;;;;5.95;1.75;;;;;;;8.16;78.59;100755.44;5012681;28;20172;-69
2021/10/23 03:16:11;;;;;;;5.63;1.63;;;;;;;8.16;78.74;100763.44;5012796;28;20066;-69
2021/10/23 03:18:39;;;;;;;5.25;1.70;;;;;;;8.15;78.70;100767.00;5012377;28;20065;-70
2021/10/23 03:21:08;;;;;;;5.47;1.92;;;;;;;8.03;79.32;100766.59;5013006;28;20061;-68
2021/10/23 03:23:37;;;;;;;4.88;1.60;;;;;;;8.12;78.83;100777.78;5012381;28;20046;-69
2021/10/23 03:26:05;;;;;;;5.35;1.92;;;;;;;8.15;78.22;100775.00;5013193;28;20049;-68
2021/10/23 03:28:34;;;;;;;5.65;2.22;;;;;;;8.09;78.55;100773.44;5011548;28;20034;-70
2021/10/23 03:31:02;;;;;;;4.10;1.70;;;;;;;8.06;78.81;100783.34;5015949;28;20066;-69
2021/10/23 03:33:31;;;;;;;4.72;1.98;;;;;;;8.17;77.54;100786.41;5016036;28;20045;-70
2021/10/23 03:35:59;;;;;;;6.00;1.80;;;;;;;8.08;78.62;100797.41;5016555;28;20053;-69
2021/10/23 03:38:27;;;;;;;6.47;1.48;;;;;;;8.03;79.26;100795.81;5016555;28;20045;-68
2021/10/23 03:40:57;;;;;;;9.02;1.65;;;;;;;7.98;79.60;100800.44;5016607;28;20080;-69
2021/10/23 03:43:25;;;;;;;9.57;2.20;;;;;;;7.92;79.89;100806.03;5016417;28;20037;-69
2021/10/23 03:45:56;;;;;;;6.22;1.60;;;;;;;7.92;79.72;100808.69;5016143;28;20553;-71
2021/10/23 03:48:25;;;;;;;5.28;1.67;;;;;;;7.91;79.67;100806.97;5015920;28;20037;-71
2021/10/23 03:50:53;;;;;;;5.88;1.40;;;;;;;7.92;79.75;100799.84;5016155;28;20096;-69
2021/10/23 03:53:21;;;;;;;7.63;1.98;;;;;;;7.85;79.88;100796.56;5016675;28;20502;-69
2021/10/23 03:55:52;;;;;;;5.72;1.88;;;;;;;7.87;80.02;100804.47;5015658;28;20053;-70
2021/10/23 03:58:23;;;;;;;5.38;1.77;;;;;;;7.84;80.32;100807.25;5016648;28;20054;-69
2021/10/23 04:00:52;;;;;;;4.03;1.60;;;;;;;7.85;80.00;100804.53;5016275;28;20046;-69
2021/10/23 04:03:23;;;;;;;4.82;1.75;;;;;;;7.85;80.17;100804.53;5017646;28;20583;-69
2021/10/23 04:05:51;;;;;;;5.40;1.52;;;;;;;7.83;79.29;100803.75;5016328;28;20066;-70
2021/10/23 04:08:19;;;;;;;6.60;1.65;;;;;;;7.86;79.41;100802.75;5015695;28;20038;-71
2021/10/23 04:10:48;;;;;;;6.50;1.77;;;;;;;7.84;79.21;100810.78;5015940;28;20045;-72
2021/10/23 04:13:16;;;;;;;3.80;1.60;;;;;;;7.86;79.02;100808.94;5016468;28;20045;-71
2021/10/23 04:15:49;;;;;;;5.18;1.70;;;;;;;7.88;78.90;100811.50;5015990;28;20399;-70
2021/10/23 04:18:17;;;;;;;4.43;1.55;;;;;;;7.84;79.25;100813.44;5015900;28;20488;-68
2021/10/23 04:20:46;;;;;;;5.55;1.45;;;;;;;7.83;79.63;100806.41;5015321;28;20061;-68
2021/10/23 04:23:14;;;;;;;5.97;1.55;;;;;;;7.80;79.42;100811.81;4998060;28;20057;-67
2021/10/23 04:25:42;;;;;;;6.70;2.05;;;;;;;7.83;79.14;100803.75;5016062;28;20069;-68
2021/10/23 04:28:11;;;;;;;5.75;1.58;;;;;;;7.82;79.16;100807.34;5015370;28;20046;-68
2021/10/23 04:30:39;;;;;;;5.05;1.58;;;;;;;7.73;79.35;100807.69;5015140;28;20053;-67
2021/10/23 04:33:09;;;;;;;9.00;1.95;;;;;;;7.81;78.82;100808.22;5015479;28;20105;-68
2021/10/23 04:35:37;;;;;;;6.18;1.73;;;;;;;7.86;78.48;100805.41;5015092;28;20129;-69
2021/10/23 04:38:07;;;;;;;5.18;1.60;;;;;;;7.86;78.50;100803.59;5015470;28;20072;-68
2021/10/23 04:40:37;;;;;;;6.57;1.73;;;;;;;7.85;78.09;100807.19;5014660;28;20121;-69
2021/10/23 04:43:06;;;;;;;4.03;1.58;;;;;;;7.92;77.83;100803.38;4997375;28;20483;-69
2021/10/23 04:45:39;;;;;;;6.50;1.65;;;;;;;7.85;78.14;100801.88;5014671;28;20096;-67
2021/10/23 04:48:09;;;;;;;6.25;2.00;;;;;;;7.85;78.47;100806.34;5015055;28;20042;-68
2021/10/23 04:50:37;;;;;;;5.57;1.70;;;;;;;7.82;78.52;100806.47;5014429;28;20061;-68
2021/10/23 04:53:05;;;;;;;4.38;1.40;;;;;;;7.84;78.51;100810.78;5015270;28;20045;-70
2021/10/23 04:55:33;;;;;;;4.18;1.25;;;;;;;7.78;79.12;100811.00;5015034;28;20049;-78
2021/10/23 04:58:02;;;;;;;6.47;1.60;;;;;;;7.71;79.54;100812.16;5014898;28;20072;-69
2021/10/23 05:00:30;;;;;;;4.35;1.73;;;;;;;7.67;79.71;100818.53;5014528;28;20053;-70
2021/10/23 05:02:58;;;;;;;4.47;1.50;;;;;;;7.69;79.37;100819.34;5014603;28;20376;-70
2021/10/23 05:05:28;;;;;;;8.40;1.60;;;;;;;7.74;79.08;100820.03;5014835;28;20050;-70
2021/10/23 05:07:56;;;;;;;4.97;1.45;;;;;;;7.77;78.71;100825.22;5014471;28;20129;-69
2021/10/23 05:10:25;;;;;;;6.20;1.80;;;;;;;7.79;78.29;100834.00;5014632;28;20042;-70
2021/10/23 05:12:53;;;;;;;3.65;1.30;;;;;;;7.79;78.08;100828.69;5014394;28;20482;-70
2021/10/23 05:15:22;;;;;;;4.20;1.52;;;;;;;7.78;78.36;100842.88;5014712;28;20042;-69
2021/10/23 05:17:50;;;;;;;4.63;1.70;;;;;;;7.77;78.49;100838.50;5013998;28;20081;-70
2021/10/23 05:20:18;;;;;;;6.80;1.85;;;;;;;7.74;78.62;100846.59;5014375;28;20049;-70
2021/10/23 05:22:48;;;;;;;5.03;1.60;;;;;;;7.76;78.56;100855.38;5013972;28;20137;-70
2021/10/23 05:25:16;;;;;;;5.18;1.70;;;;;;;7.70;78.64;100871.53;5014635;28;20045;-70
2021/10/23 05:27:44;;;;;;;7.72;1.83;;;;;;;7.70;78.64;100874.19;5014224;28;20041;-70
2021/10/23 05:30:12;;;;;;;5.60;1.63;;;;;;;7.77;78.50;100873.03;5014399;28;20096;-68
2021/10/23 05:32:40;;;;;;;6.10;1.90;;;;;;;7.76;78.55;100879.25;5014123;28;20483;-70
2021/10/23 05:35:09;;;;;;;3.50;1.50;;;;;;;7.75;78.69;100886.38;5014022;28;20052;-70
2021/10/23 05:37:38;;;;;;;3.45;1.30;;;;;;;7.83;78.30;100888.72;5013708;28;20505;-71
2021/10/23 05:40:09;;;;;;;4.85;1.70;;;;;;;7.71;79.10;100894.50;5014273;28;20080;-69
2021/10/23 05:42:38;;;;;;;8.20;1.80;;;;;;;7.72;79.18;100906.84;5013701;28;20479;-76
2021/10/23 05:45:07;;;;;;;6.50;1.70;;;;;;;7.79;79.04;100913.66;5014113;28;20049;-70
2021/10/23 05:47:35;;;;;;;8.57;2.00;;;;;;;7.70;79.65;100919.31;5014153;28;20046;-70
2021/10/23 05:50:04;;;;;;;6.22;1.95;;;;;;;7.66;79.75;100921.25;5013677;28;20116;-72
2021/10/23 05:52:33;;;;;;;8.75;1.95;;;;;;;7.59;80.55;100926.81;5013451;28;20042;-72
2021/10/23 05:55:01;;;;;;;5.78;1.95;;;;;;;7.60;80.45;100934.72;5013482;28;20077;-72
2021/10/23 05:57:31;;;;;;;6.72;2.00;;;;;;;7.57;81.01;100934.00;5013671;28;20042;-72
2021/10/23 06:00:04;;;;;;;4.97;2.10;;;;;;;7.63;80.96;100947.03;5013721;28;20436;-72
2021/10/23 06:02:32;;;;;;;5.57;1.73;;;;;;;7.59;80.88;100943.63;4996062;28;20053;-72
2021/10/23 06:05:02;;;;;;;5.80;2.17;;;;;;;7.53;81.53;100945.63;5013606;28;20046;-71
2021/10/23 06:07:37;;;;;;;6.18;1.98;;;;;;;7.63;81.12;100949.69;5013672;28;20034;-72
2021/10/23 06:10:06;;;;;;;;;;;;;;;7.68;80.90;100953.03;5013871;28;20042;-72
2021/10/23 06:12:37;;;;;;;4.20;2.05;;;;;;;7.70;80.48;100960.00;5013734;28;19945;-71
2021/10/23 06:15:07;;;;;;;7.10;2.20;;;;;;;7.69;80.93;100971.56;5013698;28;20041;-72
2021/10/23 06:17:35;;;;;;;9.48;2.08;;;;;;;7.82;80.31;100969.34;5013657;28;20377;-72
2021/10/23 06:20:06;;;;;;;4.20;2.47;;;;;;;7.78;80.56;100975.66;5012920;28;20038;-71
2021/10/23 06:22:34;;;;;;;9.32;2.17;;;;;;;7.80;80.56;100983.56;5013419;28;20116;-70
2021/10/23 06:25:03;;;;;;;6.40;2.00;;;;;;;7.87;80.06;100983.31;5013217;28;20096;-68
2021/10/23 06:27:32;;;;;;;5.97;2.00;;;;;;;7.90;80.11;100991.16;5012879;28;20056;-69
2021/10/23 06:30:01;;;;;;;7.65;2.92;;;;;;;8.00;79.60;100987.22;5012407;28;20129;-69
2021/10/23 06:32:31;;;;;;;8.10;2.40;;;;;;;8.05;79.20;100992.38;5013154;28;20072;-70
2021/10/23 06:34:59;;;;;;;8.20;2.15;;;;;;;8.07;78.76;101005.59;5012557;28;20046;-70
2021/10/23 06:37:27;;;;;;;5.47;2.30;;;;;;;8.02;79.27;101005.78;4995484;28;20443;-71
2021/10/23 06:39:55;;;;;;;7.15;2.67;;;;;;;8.01;79.39;101010.22;5012877;28;20062;-71
2021/10/23 06:42:24;;;;;;;5.65;2.33;;;;;;;8.16;79.00;101021.19;5013876;28;20042;-70
2021/10/23 06:44:52;;;;;;;6.07;2.35;;;;;;;8.21;78.18;101022.75;5013315;28;20128;-70
2021/10/23 06:47:24;;;;;;;7.80;2.50;;;;;;;8.09;79.23;101022.34;5012512;28;20042;-70
2021/10/23 06:49:53;;;;;;;5.85;2.55;;;;;;;8.27;78.82;101027.81;5012480;28;20053;-68
2021/10/23 06:52:22;;;;;;;4.95;2.30;;;;;;;8.43;77.97;101022.81;5012271;28;20054;-69
2021/10/23 06:54:50;;;;;;;6.32;2.25;;;;;;;8.45;78.05;101036.91;5011827;28;20045;-68
2021/10/23 06:57:18;;;;;;;6.07;2.10;;;;;;;8.52;77.77;101043.72;5012352;28;20048;-68
2021/10/23 06:59:56;;;;;;;7.60;2.20;;;;;;;8.48;77.57;101042.09;5012337;28;20077;-69
2021/10/23 07:02:25;;;;;;;5.10;2.00;;;;;;;8.61;77.72;101050.50;5012448;28;20046;-67
2021/10/23 07:04:54;;;;;;;5.57;2.20;;;;;;;8.66;77.24;101051.16;5014296;28;20038;-65
2021/10/23 07:07:23;;;;;;;7.38;2.30;;;;;;;8.66;77.74;101056.47;5016670;28;20045;-66
2021/10/23 07:09:51;;;;;;;5.30;2.15;;;;;;;8.72;77.71;101066.03;5016866;28;20057;-68
2021/10/23 07:12:19;;;;;;;6.15;2.03;;;;;;;8.81;76.91;101070.97;5017821;28;20073;-66
2021/10/23 07:14:50;;;;;;;7.18;2.20;;;;;;;8.91;77.02;101066.16;5016600;28;20049;-69
2021/10/23 07:17:18;;;;;;;7.28;2.25;;;;;;;8.83;77.01;101079.75;5016804;28;20042;-70
2021/10/23 07:19:48;;;;;;;7.25;2.00;;;;;;;8.97;76.15;101077.41;5016830;28;20053;-65
2021/10/23 07:22:16;;;;;;;3.97;1.75;;;;;;;8.97;75.40;101079.19;5016441;28;20045;-68
2021/10/23 07:24:44;;;;;;;6.63;2.33;;;;;;;9.00;75.82;101087.06;5016683;28;20129;-63
2021/10/23 07:27:12;;;;;;;7.38;1.95;;;;;;;9.12;75.45;101082.09;5016335;28;20458;-67
2021/10/23 07:29:41;;;;;;;6.07;2.03;;;;;;;9.00;75.81;101087.94;5016357;28;20056;-64
2021/10/23 07:32:09;;;;;;;5.18;2.10;;;;;;;9.00;76.37;101093.25;5018422;28;20044;-65
2021/10/23 07:34:37;;;;;;;6.45;2.08;;;;;;;9.10;75.98;101094.63;5016482;28;20442;-65
2021/10/23 07:37:07;;;;;;;6.68;2.67;;;;;;;9.09;76.08;101098.22;5016424;28;20467;-66
2021/10/23 07:39:36;;;;;;;6.22;2.13;;;;;;;9.21;75.83;101096.84;5016731;28;20050;-66
2021/10/23 07:42:05;;;;;;;7.60;2.08;;;;;;;9.27;75.57;101101.91;5016332;28;20042;-65
2021/10/23 07:44:40;;;;;;;7.73;2.13;;;;;;;9.27;76.16;101103.72;5017137;28;20099;-72
2021/10/23 07:47:08;;;;;;;6.80;2.47;;;;;;;9.27;75.81;101104.59;5014754;28;20124;-66
2021/10/23 07:49:36;;;;;;;8.50;2.90;;;;;;;9.34;75.10;101107.84;5014922;28;20045;-66
2021/10/23 07:52:05;;;;;;;7.97;2.85;;;;;;;9.27;75.20;101112.56;5014917;28;20050;-66
2021/10/23 07:54:34;;;;;;;8.27;3.30;;;;;;;9.27;75.00;101117.91;4997225;28;20140;-65
2021/10/23 07:57:03;;;;;;;11.15;3.70;;;;;;;9.33;74.71;101112.28;5015027;28;20096;-64
2021/10/23 07:59:31;;;;;;;7.78;3.72;;;;;;;9.38;74.62;101104.13;5014898;28;20430;-64
2021/10/23 08:02:01;;;;;;;7.65;3.35;;;;;;;9.58;74.37;101113.94;5014839;28;20044;-71
2021/10/23 08:04:30;;;;;;;6.93;2.80;;;;;;;9.52;74.16;101112.41;5015103;28;20041;-70
2021/10/23 08:07:00;;;;;;;9.13;2.65;;;;;;;9.52;74.22;101099.09;5015984;28;20062;-69
2021/10/23 08:09:29;;;;;;;6.35;1.60;;;;;;;9.63;73.23;101123.47;5015546;28;20045;-69
2021/10/23 08:11:59;;;;;;;5.03;1.70;;;;;;;9.67;73.53;101117.09;5015119;28;20042;-71
2021/10/23 08:14:28;;;;;;;7.38;2.00;;;;;;;9.57;73.38;101126.41;5019395;28;20047;-71
2021/10/23 08:16:56;;;;;;;8.23;2.05;;;;;;;9.55;74.08;101120.25;5004640;28;20399;-71
2021/10/23 08:19:25;;;;;;;5.68;1.50;;;;;;;9.75;73.58;101120.28;4995825;28;20042;-69
2021/10/23 08:21:53;;;;;;;5.32;2.15;;;;;;;9.80;73.15;101120.09;4996426;28;20044;-70
2021/10/23 08:24:22;;;;;;;4.82;2.17;;;;;;;9.86;73.29;101116.31;4997557;28;20049;-71
2021/10/23 08:26:50;;;;;;;4.45;1.90;;;;;;;9.93;73.58;101113.28;4996498;28;20376;-69
2021/10/23 08:29:20;;;;;;;7.07;1.80;;;;;;;9.89;73.30;101117.03;4996982;28;20046;-68
2021/10/23 08:31:49;;;;;;;14.98;2.88;;;;;;;9.90;74.08;101116.09;4996740;28;20050;-65
2021/10/23 08:34:18;;;;;;;5.45;1.65;;;;;;;9.99;72.65;101122.81;4995159;28;20085;-71
2021/10/23 08:36:47;;;;;;;5.65;2.42;;;;;;;10.10;73.04;101122.34;4994876;28;20062;-65
2021/10/23 08:39:15;;;;;;;6.47;2.00;;;;;;;10.04;72.67;101119.03;4995668;28;20054;-67
2021/10/23 08:41:45;;;;;;;4.70;1.80;;;;;;;10.11;73.32;101108.94;4995269;28;20484;-66
2021/10/23 08:44:16;;;;;;;7.95;2.10;;;;;;;10.16;73.43;101109.59;5000741;28;20133;-64
2021/10/23 08:46:46;;;;;;;4.22;1.88;;;;;;;10.10;73.14;101111.69;5035223;28;20042;-64
2021/10/23 08:49:15;;;;;;;5.95;2.15;;;;;;;10.10;72.94;101114.34;5034940;28;20042;-63
2021/10/23 08:51:44;;;;;;;7.07;1.70;;;;;;;10.27;72.86;101112.69;5034239;28;20045;-63
2021/10/23 08:54:14;;;;;;;5.25;1.73;;;;;;;10.32;73.17;101116.00;5035216;28;20504;-70
2021/10/23 08:56:42;;;;;;;5.82;2.00;;;;;;;10.30;72.83;101120.53;5034480;28;20060;-71
2021/10/23 08:59:11;;;;;;;7.47;2.08;;;;;;;10.36;73.32;101113.22;5035676;28;20049;-67
2021/10/23 09:01:40;;;;;;;7.38;1.70;;;;;;;10.49;73.50;101112.56;5034479;28;20045;-70
2021/10/23 09:04:10;;;;;;;8.65;2.10;;;;;;;10.47;72.29;101111.78;5033918;28;20057;-71
2021/10/23 09:06:40;;;;;;;5.15;1.98;;;;;;;10.57;72.16;101109.53;5015893;28;20053;-71
2021/10/23 09:09:11;;;;;;;4.60;1.77;;;;;;;10.62;71.69;101107.53;5034211;28;20056;-70
2021/10/23 09:11:41;;;;;;;5.82;1.58;;;;;;;10.66;72.06;101114.47;5033583;28;20098;-72
2021/10/23 09:14:27;;;;;;;5.80;1.60;;;;;;;10.71;71.53;101123.13;5033749;28;20049;-73
2021/10/23 09:17:05;;;;;;;4.80;1.67;;;;;;;10.76;71.24;101118.41;5034137;28;20539;-68
2021/10/23 09:19:37;;;;;;;7.07;2.30;;;;;;;10.81;71.32;101123.56;5033386;28;20163;-72
2021/10/23 09:22:08;;;;;;;5.80;1.92;;;;;;;11.05;71.52;101132.19;5033739;28;20080;-68
2021/10/23 09:24:36;;;;;;;5.25;1.90;;;;;;;11.22;69.83;101129.56;5033133;28;20084;-72
2021/10/23 09:27:15;;;;;;;5.38;2.00;;;;;;;11.11;70.21;101129.22;5033581;28;20045;-66
2021/10/23 09:29:43;;;;;;;6.88;2.05;;;;;;;11.22;70.25;101128.69;5033444;28;20450;-65
2021/10/23 09:32:16;;;;;;;4.40;1.92;;;;;;;11.06;70.15;101124.09;5033763;28;20048;-73
2021/10/23 09:34:45;;;;;;;5.53;1.95;;;;;;;11.14;70.10;101123.72;5032961;28;20041;-72
2021/10/23 09:37:14;;;;;;;5.93;1.70;;;;;;;11.10;70.39;101128.38;5033750;28;20045;-72
2021/10/23 09:39:42;;;;;;;6.05;1.95;;;;;;;11.17;69.34;101120.91;5033197;28;20050;-69
2021/10/23 09:42:14;;;;;;;5.25;1.80;;;;;;;11.25;69.48;101124.06;5033368;28;20095;-65
2021/10/23 09:45:03;;;;;;;5.80;1.80;;;;;;;11.27;68.26;101124.84;5032323;28;20144;-69
2021/10/23 09:47:33;;;;;;;4.75;1.88;;;;;;;11.24;69.38;101127.69;5033149;28;20042;-67
2021/10/23 09:50:14;;;;;;;6.88;1.70;;;;;;;11.23;68.74;101133.97;5033447;28;20052;-67
2021/10/23 09:53:02;;;;;;;3.30;1.10;;;;;;;11.29;68.32;101114.97;5032893;28;20037;-68
2021/10/23 09:55:33;;;;;;;6.80;1.90;;;;;;;11.25;68.90;101116.06;5032387;28;20049;-75
2021/10/23 09:58:14;;;;;;;4.82;1.52;;;;;;;11.35;68.21;101103.97;5033146;28;20050;-66
2021/10/23 10:00:47;;;;;;;5.78;2.00;;;;;;;11.33;68.68;101100.53;5032738;28;20073;-65
2021/10/23 10:03:16;;;;;;;4.90;1.80;;;;;;;11.45;67.95;101105.25;5032904;28;20037;-67
2021/10/23 10:05:51;;;;;;;3.58;1.48;;;;;;;11.51;67.90;101112.09;5032189;28;20506;-65
2021/10/23 10:08:23;;;;;;;4.93;1.50;;;;;;;11.44;67.06;101108.00;5032820;28;20033;-66
2021/10/23 10:10:52;;;;;;;5.97;1.70;;;;;;;11.47;67.49;101102.47;5030408;28;20049;-67
2021/10/23 10:13:22;;;;;;;3.45;1.33;;;;;;;11.42;67.07;101097.38;4975996;28;20054;-73
2021/10/23 10:15:51;;;;;;;4.10;1.70;;;;;;;11.49;66.98;101099.75;5024467;28;20042;-71
2021/10/23 10:18:22;;;;;;;4.43;1.40;;;;;;;11.56;66.31;101094.00;5032567;28;20140;-71
2021/10/23 10:20:53;;;;;;;3.72;1.50;;;;;;;11.44;66.01;101099.97;5028063;28;20046;-65
2021/10/23 10:23:30;;;;;;;4.60;1.42;;;;;;;11.46;66.88;101090.94;4993501;28;20054;-65
2021/10/23 10:26:27;;;;;;;5.60;1.33;;;;;;;11.46;64.47;101101.63;4993024;28;20050;-74
2021/10/23 10:29:34;;;;;;;3.53;1.20;;;;;;;11.21;64.49;101100.28;4993170;28;20050;-69
2021/10/23 10:32:14;;;;;;;5.97;1.40;;;;;;;11.29;65.22;101082.94;4913998;29;20048;-68
2021/10/23 10:38:11;;;;;;;2.05;1.25;;;;;;;11.38;64.54;101076.22;4972631;28;20058;-64
2021/10/23 10:40:57;;;;;;;4.65;1.50;;;;;;;11.47;64.08;101084.66;4992364;28;20070;-72
2021/10/23 10:43:25;;;;;;;4.85;1.38;;;;;;;11.53;64.07;101087.97;4993301;28;20047;-72
2021/10/23 10:46:01;;;;;;;2.05;1.02;;;;;;;11.64;63.39;101077.59;5025000;28;20058;-65
2021/10/23 10:48:41;;;;;;;3.33;1.20;;;;;;;11.86;62.54;101080.03;5032533;28;20042;-67
2021/10/23 10:51:21;;;;;;;2.55;1.13;;;;;;;11.93;62.13;101089.47;5032675;28;20095;-66
2021/10/23 10:54:18;;;;;;;2.67;1.45;;;;;;;11.91;61.42;101092.22;5031691;28;20045;-66
2021/10/23 10:56:52;;;;;;;4.47;1.77;;;;;;;12.07;61.46;101086.09;5031862;28;20117;-64
2021/10/23 10:59:51;;;;;;;5.75;1.50;;;;;;;12.39;60.38;101103.94;5032563;28;20053;-66
2021/10/23 11:02:31;;;;;;;3.55;1.20;;;;;;;12.28;59.53;101085.78;5032383;28;20077;-68
2021/10/23 11:05:28;;;;;;;2.17;0.88;;;;;;;11.98;59.94;101085.63;5031898;28;20491;-64
2021/10/23 11:08:17;;;;;;;4.18;1.60;;;;;;;11.95;59.73;101101.81;4987121;28;20064;-65
2021/10/23 11:11:05;;;;;;;4.45;1.70;;;;;;;11.92;60.67;101093.09;5026395;28;20052;-66
2021/10/23 11:13:44;;;;;;;2.65;1.27;;;;;;;11.90;59.88;101095.84;5032009;28;20042;-72
2021/10/23 11:16:26;;;;;;;3.90;1.35;;;;;;;11.90;60.25;101090.50;5031916;28;20079;-66
2021/10/23 11:18:56;;;;;;;5.60;1.90;;;;;;;11.95;59.63;101083.09;5031923;28;20056;-66
2021/10/23 11:21:25;;;;;;;4.90;1.77;;;;;;;12.06;59.72;101097.69;5031980;28;20056;-69
2021/10/23 11:23:54;;;;;;;3.20;1.23;;;;;;;12.23;58.69;101100.34;5031417;28;20046;-69
2021/10/23 11:26:24;;;;;;;2.75;1.10;;;;;;;12.03;58.57;101102.28;5032076;28;20045;-67
2021/10/23 11:28:52;;;;;;;4.18;1.20;;;;;;;11.95;59.38;101092.91;5014323;28;20056;-67
2021/10/23 11:31:21;;;;;;;2.50;1.33;;;;;;;11.83;59.79;101089.09;5031862;28;20046;-67
2021/10/23 11:33:50;;;;;;;6.18;1.50;;;;;;;11.91;58.41;101097.56;5031419;28;20140;-67
2021/10/23 11:36:19;;;;;;;3.35;1.38;;;;;;;11.98;56.64;101096.31;5031684;28;20042;-69
2021/10/23 11:38:51;;;;;;;4.07;1.33;;;;;;;12.06;55.72;101101.25;5031784;28;20038;-66
2021/10/23 11:41:26;;;;;;;2.20;1.10;;;;;;;12.12;54.70;101100.06;5031739;28;20049;-65
2021/10/23 11:44:08;;;;;;;3.05;1.27;;;;;;;12.12;55.66;101094.72;5031438;28;20049;-69
2021/10/23 11:46:38;;;;;;;3.03;1.40;;;;;;;12.43;55.14;101100.13;5031818;28;20048;-66
2021/10/23 11:49:08;;;;;;;3.33;0.90;;;;;;;12.40;54.67;101118.19;5032177;28;20111;-67
2021/10/23 11:51:36;;;;;;;6.95;1.60;;;;;;;12.51;54.00;101100.59;5033171;28;20046;-67